Time;durP1;ratioP1;P1;durP2;ratioP2;P2;SDS_P1;SDS_P2;PMS_P1;PMS_P2;Temp;Humidity;BMP_temperature;BMP_pressure;BME280_temperature;BME280_humidity;BME280_pressure;Samples;Min_cycle;Max_cycle;Signal;HPM_P1;HPM_P2
2022/11/12 00:00:36;;;;;;;3.28;1.60;;;;;;;14.74;43.14;101740.78;5051146;28;20032;-51
2022/11/12 00:03:02;;;;;;;2.67;1.40;;;;;;;14.58;43.54;101749.31;5044020;28;20026;-54
2022/11/12 00:05:29;;;;;;;2.55;1.48;;;;;;;14.65;42.00;101746.59;5027561;28;20071;-55
2022/11/12 00:07:55;;;;;;;5.20;2.25;;;;;;;14.59;43.39;101736.66;5053102;28;20041;-50
2022/11/12 00:10:22;;;;;;;1.75;1.50;;;;;;;14.81;43.43;101737.22;5051025;28;20037;-52
2022/11/12 00:12:48;;;;;;;1.90;1.58;;;;;;;14.56;43.54;101737.09;5057172;28;20119;-48
2022/11/12 00:15:15;;;;;;;2.45;1.60;;;;;;;14.81;43.19;101734.53;5050975;28;20021;-47
2022/11/12 00:17:41;;;;;;;2.13;1.38;;;;;;;14.70;43.80;101739.53;5050819;28;20048;-50
2022/11/12 00:20:08;;;;;;;2.38;1.35;;;;;;;14.47;43.43;101726.53;5090521;22;20443;-48
2022/11/12 00:22:34;;;;;;;2.17;1.35;;;;;;;14.67;42.74;101725.69;5085925;28;20013;-46
2022/11/12 00:25:00;;;;;;;2.22;1.27;;;;;;;14.52;43.56;101721.34;5088754;28;20565;-52
2022/11/12 00:27:27;;;;;;;5.53;1.70;;;;;;;14.61;43.88;101721.13;5091277;28;20024;-51
2022/11/12 00:29:53;;;;;;;2.50;1.52;;;;;;;14.48;44.20;101714.72;5091168;28;20024;-51
2022/11/12 00:32:19;;;;;;;2.22;1.48;;;;;;;14.30;44.32;101719.91;5090554;28;20031;-53
2022/11/12 00:34:45;;;;;;;3.70;1.90;;;;;;;14.24;44.34;101715.34;5090859;28;20039;-50
2022/11/12 00:37:12;;;;;;;5.63;1.52;;;;;;;14.39;44.38;101718.66;5091270;28;20107;-52
2022/11/12 00:39:38;;;;;;;4.32;1.45;;;;;;;14.47;45.33;101721.16;5093932;28;20043;-51
2022/11/12 00:42:04;;;;;;;3.10;1.65;;;;;;;14.53;44.44;101720.31;5075705;28;20028;-50
2022/11/12 00:44:30;;;;;;;2.78;1.60;;;;;;;14.43;45.63;101721.75;5080013;28;20047;-49
2022/11/12 00:46:56;;;;;;;3.35;1.40;;;;;;;14.44;45.77;101721.56;5082680;28;20095;-51
2022/11/12 00:49:23;;;;;;;2.65;1.30;;;;;;;14.39;46.08;101724.03;5093324;28;20036;-53
2022/11/12 00:51:49;;;;;;;1.88;1.30;;;;;;;14.31;45.91;101732.31;5095106;28;20218;-52
2022/11/12 00:54:15;;;;;;;1.75;1.50;;;;;;;14.25;45.06;101728.59;5093020;28;20081;-51
2022/11/12 00:56:42;;;;;;;2.47;1.50;;;;;;;14.21;44.99;101730.09;5094780;28;20020;-49
2022/11/12 00:59:08;;;;;;;3.20;1.30;;;;;;;14.33;44.94;101724.06;5094710;28;20539;-53
2022/11/12 01:01:34;;;;;;;1.50;1.30;;;;;;;14.18;44.71;101730.47;5095101;28;20028;-51
2022/11/12 01:04:00;;;;;;;1.38;0.80;;;;;;;14.16;45.52;101734.44;5093600;28;20059;-50
2022/11/12 01:06:26;;;;;;;2.50;1.60;;;;;;;14.07;46.12;101735.66;5094958;28;20093;-49
2022/11/12 01:08:55;;;;;;;1.77;1.30;;;;;;;13.97;45.83;101736.06;5092288;28;20426;-51
2022/11/12 01:11:24;;;;;;;2.15;1.48;;;;;;;13.92;46.41;101736.69;5056568;28;20024;-51
2022/11/12 01:13:57;;;;;;;2.78;1.40;;;;;;;13.83;46.83;101737.94;5090182;28;20114;-51
2022/11/12 01:16:27;;;;;;;1.65;1.27;;;;;;;13.72;47.24;101736.69;5086057;28;20024;-50
2022/11/12 01:18:58;;;;;;;2.20;1.67;;;;;;;13.63;47.41;101734.38;5094458;28;20063;-51
2022/11/12 01:21:27;;;;;;;2.50;1.60;;;;;;;13.55;48.00;101738.09;5089376;28;20086;-50
2022/11/12 01:23:53;;;;;;;2.17;1.73;;;;;;;13.46;48.28;101731.25;5078199;28;20100;-48
2022/11/12 01:26:21;;;;;;;1.90;1.40;;;;;;;13.35;48.64;101729.97;5073355;28;20040;-51
2022/11/12 01:28:48;;;;;;;2.33;1.85;;;;;;;13.24;48.19;101735.94;5074103;28;20059;-50
2022/11/12 01:31:20;;;;;;;3.80;1.63;;;;;;;13.14;47.99;101732.75;5073696;28;20075;-48
2022/11/12 01:33:49;;;;;;;2.42;1.75;;;;;;;13.04;48.09;101730.44;5073249;28;20077;-51
2022/11/12 01:36:17;;;;;;;2.38;1.75;;;;;;;12.97;48.21;101728.75;5058344;28;21761;-48
2022/11/12 01:38:45;;;;;;;3.28;2.22;;;;;;;12.88;48.27;101736.16;5092664;28;20051;-49
2022/11/12 01:41:14;;;;;;;3.15;2.17;;;;;;;12.72;48.37;101728.44;5092834;28;20020;-48
2022/11/12 01:43:40;;;;;;;4.00;1.98;;;;;;;12.68;47.92;101733.38;5093519;28;20043;-49
2022/11/12 01:46:18;;;;;;;4.35;1.88;;;;;;;12.58;48.09;101751.69;5093547;28;20039;-50
2022/11/12 01:48:52;;;;;;;3.00;1.70;;;;;;;12.51;48.73;101740.09;5093587;28;20024;-51
2022/11/12 01:51:22;;;;;;;3.08;1.70;;;;;;;12.29;48.56;101744.69;5093361;28;20048;-48
2022/11/12 01:53:52;;;;;;;3.22;2.00;;;;;;;12.22;48.96;101752.69;5093403;28;20028;-51
2022/11/12 01:56:21;;;;;;;2.50;1.75;;;;;;;12.31;49.20;101742.63;5092271;28;20032;-51
2022/11/12 01:58:51;;;;;;;2.33;1.45;;;;;;;12.45;48.29;101747.09;5093391;28;20035;-50
2022/11/12 02:01:17;;;;;;;3.28;1.40;;;;;;;12.07;49.10;101751.94;5093410;28;20382;-51
2022/11/12 02:03:43;;;;;;;3.03;1.30;;;;;;;11.96;49.49;101760.50;5093395;28;20372;-47
2022/11/12 02:06:14;;;;;;;3.22;1.40;;;;;;;11.87;49.68;101759.81;5093543;28;20169;-52
2022/11/12 02:08:40;;;;;;;2.80;1.55;;;;;;;11.76;50.11;101760.28;5075294;28;20411;-52
2022/11/12 02:11:16;;;;;;;2.80;1.35;;;;;;;11.67;50.35;101767.63;5085557;28;20132;-52
2022/11/12 02:13:56;;;;;;;3.88;1.45;;;;;;;11.71;52.08;101771.56;5083664;28;20425;-48
2022/11/12 02:16:31;;;;;;;3.45;1.17;;;;;;;11.58;52.16;101768.75;5073075;28;20117;-49
2022/11/12 02:18:57;;;;;;;2.88;1.30;;;;;;;11.48;52.35;101776.28;5090129;28;20090;-49
2022/11/12 02:21:25;;;;;;;1.52;1.10;;;;;;;11.45;52.49;101769.47;5077115;28;20470;-52
2022/11/12 02:24:05;;;;;;;2.15;1.52;;;;;;;11.32;52.81;101771.97;5088259;28;20467;-52
2022/11/12 02:26:39;;;;;;;2.35;1.20;;;;;;;11.24;52.85;101774.78;5084715;28;20068;-52
2022/11/12 02:29:05;;;;;;;1.80;1.30;;;;;;;11.17;52.90;101774.69;5072563;28;20035;-51
2022/11/12 02:31:32;;;;;;;3.08;1.50;;;;;;;11.08;53.48;101770.44;5083253;28;20028;-49
2022/11/12 02:33:58;;;;;;;2.88;1.90;;;;;;;10.99;53.58;101764.38;5077976;28;20047;-51
2022/11/12 02:36:25;;;;;;;2.65;1.88;;;;;;;10.89;54.16;101771.03;5088783;28;20127;-51
2022/11/12 02:38:51;;;;;;;3.58;2.33;;;;;;;10.87;54.31;101767.69;5079931;28;20028;-49
2022/11/12 02:41:17;;;;;;;5.35;2.50;;;;;;;10.79;54.69;101777.47;5072115;28;20476;-52
2022/11/12 02:43:44;;;;;;;3.22;2.03;;;;;;;10.68;54.75;101777.94;5071778;28;20111;-52
2022/11/12 02:46:10;;;;;;;4.32;2.40;;;;;;;10.48;55.42;101774.13;5075374;28;20028;-49
2022/11/12 02:48:37;;;;;;;2.97;2.28;;;;;;;10.50;55.44;101780.97;5090637;28;20039;-51
2022/11/12 02:51:05;;;;;;;4.25;2.38;;;;;;;10.27;55.97;101773.00;5073318;28;20040;-48
2022/11/12 02:53:31;;;;;;;4.57;2.30;;;;;;;10.11;56.82;101770.44;5086573;28;20035;-49
2022/11/12 02:55:58;;;;;;;5.47;1.98;;;;;;;9.90;57.29;101781.78;5092276;28;20030;-52
2022/11/12 02:58:24;;;;;;;5.68;2.70;;;;;;;10.31;55.99;101779.63;5092385;28;20024;-51
2022/11/12 03:00:51;;;;;;;2.70;1.85;;;;;;;10.14;55.96;101780.75;5082318;28;20044;-50
2022/11/12 03:03:17;;;;;;;3.38;1.73;;;;;;;9.92;56.58;101781.59;5071032;28;20029;-49
2022/11/12 03:05:45;;;;;;;3.33;2.25;;;;;;;9.22;59.07;101778.03;5091285;28;20058;-52
2022/11/12 03:08:11;;;;;;;2.45;1.83;;;;;;;8.71;60.92;101774.84;5090819;28;20035;-50
2022/11/12 03:10:38;;;;;;;6.50;3.03;;;;;;;8.73;60.93;101780.88;5071745;28;20029;-52
2022/11/12 03:13:05;;;;;;;4.47;2.50;;;;;;;9.39;59.24;101783.28;5088996;28;20028;-52
2022/11/12 03:15:32;;;;;;;3.63;2.20;;;;;;;9.28;58.97;101787.19;5086292;28;20052;-51
2022/11/12 03:17:59;;;;;;;4.20;2.22;;;;;;;9.40;58.75;101784.94;5071768;28;20450;-50
2022/11/12 03:20:26;;;;;;;5.28;2.35;;;;;;;9.34;58.70;101780.31;5071715;28;20055;-51
2022/11/12 03:23:01;;;;;;;3.35;2.05;;;;;;;9.50;58.22;101782.91;5090190;28;20483;-47
2022/11/12 03:25:28;;;;;;;2.00;1.77;;;;;;;9.42;58.39;101782.91;5091178;28;20443;-47
2022/11/12 03:28:01;;;;;;;4.05;2.00;;;;;;;9.17;58.83;101784.91;5092087;28;20020;-48
2022/11/12 03:30:29;;;;;;;5.15;1.50;;;;;;;8.68;60.24;101785.88;5091761;28;20031;-48
2022/11/12 03:32:55;;;;;;;2.03;1.58;;;;;;;8.60;60.55;101783.22;5091347;28;20016;-52
2022/11/12 03:35:22;;;;;;;2.25;1.58;;;;;;;8.38;61.47;101790.13;5091424;28;20020;-48
2022/11/12 03:37:49;;;;;;;2.08;1.60;;;;;;;8.98;60.06;101775.44;5088680;28;20033;-50
2022/11/12 03:40:16;;;;;;;3.58;1.92;;;;;;;9.00;59.37;101770.78;5091105;28;20024;-49
2022/11/12 03:42:50;;;;;;;5.05;3.10;;;;;;;8.59;60.71;101780.72;5091631;28;20463;-48
2022/11/12 03:45:18;;;;;;;4.22;3.50;;;;;;;8.59;60.52;101781.56;5082678;28;20041;-49
2022/11/12 03:47:49;;;;;;;7.15;3.28;;;;;;;8.26;61.67;101779.91;5066651;28;20415;-48
2022/11/12 03:50:17;;;;;;;2.60;2.25;;;;;;;8.10;62.29;101786.91;5071351;28;20127;-48
2022/11/12 03:52:48;;;;;;;6.07;2.22;;;;;;;7.89;63.66;101781.25;5069476;28;20023;-51
2022/11/12 03:55:16;;;;;;;5.28;1.80;;;;;;;8.02;62.99;101778.91;5077396;28;20032;-49
2022/11/12 03:57:43;;;;;;;2.97;1.80;;;;;;;8.26;62.46;101775.41;5089993;28;20020;-51
2022/11/12 04:00:11;;;;;;;3.80;2.20;;;;;;;7.57;64.48;101790.00;5071329;28;20485;-49
2022/11/12 04:02:38;;;;;;;3.28;1.73;;;;;;;7.54;64.71;101796.47;5071295;28;20032;-49
2022/11/12 04:10:40;;;;;;;2.35;1.73;;;;;;;8.01;63.25;101790.56;5069500;28;19926;-50
2022/11/12 04:24:06;;;;;;;2.72;1.95;;;;;;;8.09;62.62;101801.22;5075376;28;20031;-51
2022/11/12 04:26:32;;;;;;;2.45;1.83;;;;;;;8.11;62.60;101796.59;5084689;28;20036;-51
2022/11/12 04:31:42;;;;;;;2.53;2.10;;;;;;;8.20;62.36;101786.72;5095596;28;20043;-51
2022/11/12 04:36:53;;;;;;;3.30;1.85;;;;;;;8.30;62.23;101791.91;5095303;28;20042;-51
2022/11/12 04:39:19;;;;;;;2.75;1.83;;;;;;;8.32;62.02;101795.22;5095045;28;20024;-50
2022/11/12 04:47:14;;;;;;;3.42;1.85;;;;;;;8.35;62.39;101794.91;5094907;28;20051;-52
2022/11/12 04:49:40;;;;;;;3.08;2.00;;;;;;;8.31;62.67;101794.41;5091954;28;20077;-51
2022/11/12 04:52:06;;;;;;;4.05;2.20;;;;;;;8.19;63.34;101791.25;5073906;28;20357;-51
2022/11/12 04:54:33;;;;;;;4.60;2.55;;;;;;;8.36;63.02;101791.25;5073675;28;20028;-51
2022/11/12 04:56:59;;;;;;;3.58;2.38;;;;;;;8.30;62.85;101803.41;5074386;28;20090;-51
2022/11/12 04:59:26;;;;;;;2.97;1.95;;;;;;;8.30;63.13;101795.41;5073989;28;20033;-51
2022/11/12 05:01:52;;;;;;;3.65;2.13;;;;;;;8.20;63.43;101797.41;5074405;28;20025;-50
2022/11/12 05:04:18;;;;;;;6.00;2.47;;;;;;;8.44;63.62;101801.94;5089906;28;20024;-51
2022/11/12 05:06:50;;;;;;;3.40;2.20;;;;;;;8.13;63.84;101810.56;5094534;28;20024;-49
2022/11/12 05:09:18;;;;;;;3.10;2.22;;;;;;;8.05;63.81;101810.59;5088669;28;20081;-51
2022/11/12 05:11:44;;;;;;;4.10;2.47;;;;;;;8.01;64.22;101808.41;5079857;28;20028;-48
2022/11/12 05:14:11;;;;;;;4.38;2.20;;;;;;;7.84;65.34;101808.38;5073987;28;20059;-48
2022/11/12 05:16:38;;;;;;;4.40;1.98;;;;;;;7.89;65.13;101810.56;5083791;28;20035;-49
2022/11/12 05:19:04;;;;;;;2.50;2.30;;;;;;;8.02;64.92;101818.06;5094033;28;20040;-49
2022/11/12 05:24:15;;;;;;;2.55;1.73;;;;;;;7.87;65.17;101817.88;5093427;28;20043;-50
2022/11/12 05:26:41;;;;;;;3.10;2.05;;;;;;;7.97;65.12;101815.91;5074645;28;20028;-51
2022/11/12 05:29:07;;;;;;;2.67;2.00;;;;;;;7.93;65.27;101809.22;5078878;28;20400;-48
2022/11/12 05:31:34;;;;;;;3.33;1.83;;;;;;;7.81;65.30;101818.53;5093937;28;20417;-49
2022/11/12 05:34:00;;;;;;;2.33;1.52;;;;;;;7.77;65.29;101807.34;5092891;28;20028;-51
2022/11/12 05:36:26;;;;;;;3.25;2.00;;;;;;;7.73;65.33;101811.38;5094085;28;20483;-51
2022/11/12 05:38:52;;;;;;;4.20;1.98;;;;;;;7.72;65.30;101803.50;5093441;28;20397;-50
2022/11/12 05:41:19;;;;;;;2.38;1.92;;;;;;;7.62;65.36;101801.84;5093768;28;20055;-48
2022/11/12 05:43:45;;;;;;;2.35;1.88;;;;;;;7.65;65.50;101814.00;5093671;28;20027;-48
2022/11/12 05:46:11;;;;;;;2.50;1.77;;;;;;;7.61;65.18;101816.16;5092506;28;20032;-51
2022/11/12 05:48:37;;;;;;;5.10;2.13;;;;;;;7.62;65.10;101820.50;5093852;28;20097;-51
2022/11/12 05:51:03;;;;;;;3.45;1.95;;;;;;;7.53;65.26;101816.13;5092694;28;20471;-49
2022/11/12 05:53:30;;;;;;;2.47;1.75;;;;;;;7.53;65.32;101821.47;5092446;28;20598;-48
2022/11/12 05:56:03;;;;;;;4.03;1.90;;;;;;;7.53;65.18;101817.97;5091952;28;20043;-51
2022/11/12 05:58:30;;;;;;;3.08;1.67;;;;;;;7.51;65.31;101820.81;5093872;28;20434;-49
2022/11/12 06:00:56;;;;;;;2.92;1.75;;;;;;;7.47;65.40;101819.44;5089461;28;20107;-48
2022/11/12 06:03:23;;;;;;;2.80;1.63;;;;;;;7.44;65.39;101813.59;5093141;28;20484;-48
2022/11/12 06:05:49;;;;;;;3.10;1.67;;;;;;;7.15;66.20;101817.50;5074371;28;20036;-48
2022/11/12 06:08:16;;;;;;;3.55;1.70;;;;;;;7.24;65.93;101816.53;5073110;28;20032;-47
2022/11/12 06:10:47;;;;;;;4.07;1.73;;;;;;;7.45;65.43;101818.78;5057457;28;20507;-49
2022/11/12 06:13:13;;;;;;;2.25;1.60;;;;;;;7.51;65.11;101814.66;5092999;28;20488;-50
2022/11/12 06:15:40;;;;;;;2.17;1.70;;;;;;;7.39;65.52;101816.78;5093060;28;20034;-48
2022/11/12 06:18:06;;;;;;;1.75;1.42;;;;;;;7.26;65.56;101817.19;5093042;28;20531;-47
2022/11/12 06:20:33;;;;;;;2.13;1.42;;;;;;;7.25;65.82;101823.53;5092822;28;20056;-49
2022/11/12 06:22:59;;;;;;;2.67;1.65;;;;;;;7.28;65.74;101817.91;5093013;28;20063;-48
2022/11/12 06:25:25;;;;;;;4.03;2.05;;;;;;;7.23;66.00;101800.72;5092978;28;20062;-48
2022/11/12 06:27:51;;;;;;;2.53;1.70;;;;;;;7.26;66.08;101813.72;5074135;28;20024;-47
2022/11/12 06:30:18;;;;;;;4.40;1.65;;;;;;;7.19;66.13;101807.38;5093009;28;20027;-48
2022/11/12 06:32:50;;;;;;;3.38;1.73;;;;;;;7.19;66.24;101802.88;5093019;28;20024;-48
2022/11/12 06:35:18;;;;;;;2.17;1.58;;;;;;;7.24;66.04;101805.06;5092829;28;20063;-51
2022/11/12 06:37:48;;;;;;;2.75;1.70;;;;;;;7.15;66.40;101801.50;5092353;28;20027;-51
2022/11/12 06:40:14;;;;;;;4.95;1.80;;;;;;;7.08;66.75;101795.16;5092854;28;20081;-50
2022/11/12 06:42:40;;;;;;;2.03;1.70;;;;;;;7.22;66.31;101804.34;5092675;28;20027;-52
2022/11/12 06:45:07;;;;;;;2.10;1.83;;;;;;;7.00;66.70;101817.28;5091977;28;20494;-49
2022/11/12 06:47:33;;;;;;;2.60;1.60;;;;;;;6.98;66.80;101813.91;5092556;28;20020;-51
2022/11/12 06:49:59;;;;;;;2.65;1.90;;;;;;;6.69;67.98;101808.09;5092603;28;20024;-51
2022/11/12 06:52:25;;;;;;;3.88;1.95;;;;;;;6.73;67.95;101801.47;5092302;28;20036;-46
2022/11/12 06:54:51;;;;;;;2.65;1.52;;;;;;;6.25;69.42;101800.13;5092127;28;20032;-47
2022/11/12 06:57:18;;;;;;;3.15;2.00;;;;;;;6.23;69.80;101800.31;5091863;28;20031;-49
2022/11/12 06:59:44;;;;;;;3.22;1.65;;;;;;;6.48;69.00;101793.31;5092320;28;20074;-49
2022/11/12 07:02:12;;;;;;;2.38;2.00;;;;;;;6.49;69.17;101796.81;5092086;28;20041;-50
2022/11/12 07:04:38;;;;;;;3.38;2.00;;;;;;;6.44;69.35;101797.31;5091769;28;20369;-52
2022/11/12 07:07:05;;;;;;;8.02;1.70;;;;;;;6.54;68.63;101797.19;5092277;28;20461;-51
2022/11/12 07:09:31;;;;;;;2.67;1.65;;;;;;;6.67;68.35;101802.09;5092327;28;20051;-50
2022/11/12 07:11:57;;;;;;;2.60;1.50;;;;;;;6.65;68.09;101804.06;5092109;28;20055;-51
2022/11/12 07:14:23;;;;;;;2.58;1.55;;;;;;;6.59;68.62;101808.19;5091848;28;20034;-49
2022/11/12 07:16:49;;;;;;;2.47;1.52;;;;;;;6.63;68.26;101812.22;5092065;28;20031;-49
2022/11/12 07:19:16;;;;;;;1.95;1.25;;;;;;;6.65;68.07;101817.38;5073239;28;20040;-51
2022/11/12 07:21:42;;;;;;;1.98;1.45;;;;;;;6.68;67.93;101817.91;5071524;22;20144;-51
2022/11/12 07:24:08;;;;;;;2.33;1.67;;;;;;;6.58;68.01;101823.31;5036010;28;20037;-52
2022/11/12 07:26:35;;;;;;;4.85;1.65;;;;;;;6.67;67.94;101824.22;5031676;28;20029;-50
2022/11/12 07:29:01;;;;;;;1.92;1.55;;;;;;;6.24;68.79;101825.06;5031445;28;20120;-49
2022/11/12 07:31:27;;;;;;;2.10;1.80;;;;;;;5.77;70.56;101825.22;5030882;28;20111;-51
2022/11/12 07:33:53;;;;;;;2.45;1.80;;;;;;;5.63;71.56;101831.09;5042230;28;20033;-49
2022/11/12 07:36:21;;;;;;;2.47;1.58;;;;;;;5.67;71.51;101827.16;5050863;28;20103;-51
2022/11/12 07:38:51;;;;;;;3.90;1.85;;;;;;;5.81;71.15;101837.25;5031916;28;20417;-51
2022/11/12 07:41:22;;;;;;;5.38;2.92;;;;;;;5.71;71.38;101831.97;5040430;28;20127;-51
2022/11/12 07:43:50;;;;;;;6.32;3.10;;;;;;;5.75;71.26;101821.91;5051419;28;20025;-51
2022/11/12 07:46:18;;;;;;;16.27;7.95;;;;;;;5.91;70.64;101822.09;5034955;28;20036;-51
2022/11/12 07:48:45;;;;;;;13.77;8.95;;;;;;;6.12;70.06;101823.63;5024758;28;20040;-51
2022/11/12 07:51:13;;;;;;;17.25;10.93;;;;;;;6.07;69.95;101816.94;5035160;28;20024;-50
2022/11/12 07:53:40;;;;;;;20.25;11.57;;;;;;;6.20;69.78;101815.72;5031488;28;20067;-51
2022/11/12 07:56:09;;;;;;;21.65;11.95;;;;;;;6.06;70.04;101809.97;5035778;28;20459;-51
2022/11/12 07:58:35;;;;;;;28.83;16.20;;;;;;;5.88;70.63;101822.34;5051216;28;20029;-51
2022/11/12 08:01:09;;;;;;;29.30;14.20;;;;;;;5.88;70.83;101803.75;5049872;28;20025;-47
2022/11/12 08:03:36;;;;;;;11.18;7.60;;;;;;;6.07;70.47;101801.00;5047013;28;20540;-50
2022/11/12 08:06:03;;;;;;;6.63;3.80;;;;;;;5.88;71.14;101809.06;5034159;28;20420;-50
2022/11/12 08:08:29;;;;;;;4.28;2.45;;;;;;;5.72;71.85;101811.56;5051447;28;20551;-51
2022/11/12 08:10:57;;;;;;;4.68;1.95;;;;;;;5.76;71.56;101808.47;5049846;28;20029;-51
2022/11/12 08:13:24;;;;;;;4.90;1.80;;;;;;;5.75;71.78;101798.81;5051293;28;20025;-49
2022/11/12 08:15:50;;;;;;;3.05;1.90;;;;;;;5.68;71.83;101804.91;5051311;28;20048;-51
2022/11/12 08:18:17;;;;;;;2.13;1.58;;;;;;;5.67;71.85;101803.25;5035011;28;20056;-50
2022/11/12 08:20:43;;;;;;;3.65;1.48;;;;;;;5.34;73.49;101802.88;5030552;28;20065;-50
2022/11/12 08:23:10;;;;;;;2.35;1.88;;;;;;;5.33;73.82;101806.53;5028910;28;20445;-51
2022/11/12 08:25:36;;;;;;;4.15;1.92;;;;;;;5.53;72.98;101794.78;5030873;28;20029;-51
2022/11/12 08:28:02;;;;;;;2.47;1.85;;;;;;;5.61;72.93;101799.38;5029120;28;20474;-48
2022/11/12 08:30:29;;;;;;;2.28;1.77;;;;;;;5.50;73.02;101791.63;5031329;28;20021;-50
2022/11/12 08:33:01;;;;;;;3.00;2.00;;;;;;;5.45;73.83;101794.72;5039213;28;20111;-49
2022/11/12 08:35:28;;;;;;;3.10;2.20;;;;;;;5.39;74.31;101792.66;5048946;28;20099;-51
2022/11/12 08:37:58;;;;;;;2.05;1.80;;;;;;;5.68;73.31;101792.47;5032869;28;20026;-51
2022/11/12 08:40:26;;;;;;;3.90;1.80;;;;;;;5.67;73.31;101792.63;5049061;28;20040;-51
2022/11/12 08:42:59;;;;;;;4.20;2.15;;;;;;;5.86;72.78;101795.13;5048705;28;20434;-51
2022/11/12 08:45:27;;;;;;;9.77;2.10;;;;;;;5.89;72.53;101797.50;5041170;28;20025;-51
2022/11/12 08:48:02;;;;;;;3.97;2.20;;;;;;;5.92;72.42;101789.22;5036412;28;20484;-52
2022/11/12 08:50:29;;;;;;;2.90;2.37;;;;;;;5.78;73.25;101787.09;5033260;28;20032;-50
2022/11/12 08:53:04;;;;;;;4.10;2.88;;;;;;;5.90;73.33;101788.53;5033039;28;20802;-50
2022/11/12 08:55:32;;;;;;;3.08;2.72;;;;;;;5.85;73.96;101784.66;5030701;28;20494;-50
2022/11/12 08:58:01;;;;;;;4.28;2.00;;;;;;;5.84;74.64;101781.16;5029285;28;20033;-50
2022/11/12 09:00:29;;;;;;;3.03;2.30;;;;;;;5.83;75.00;101779.50;5031467;28;20507;-51
2022/11/12 09:02:55;;;;;;;3.13;2.30;;;;;;;6.02;74.78;101775.88;5033855;28;20405;-49
2022/11/12 09:05:21;;;;;;;3.22;2.22;;;;;;;6.23;74.20;101771.06;5033613;28;20084;-51
2022/11/12 09:07:47;;;;;;;3.45;2.22;;;;;;;6.04;75.34;101769.38;5034033;28;20025;-51
2022/11/12 09:10:14;;;;;;;4.80;2.25;;;;;;;6.23;75.36;101770.22;5040889;28;20051;-51
2022/11/12 09:12:40;;;;;;;4.05;2.28;;;;;;;6.30;75.14;101768.59;5050953;28;20116;-47
2022/11/12 09:15:06;;;;;;;3.80;2.58;;;;;;;6.17;75.48;101769.03;5048124;28;20029;-49
2022/11/12 09:17:34;;;;;;;3.58;2.25;;;;;;;6.33;74.95;101763.00;5052771;28;20431;-50
2022/11/12 09:20:00;;;;;;;2.35;2.15;;;;;;;6.31;75.23;101762.28;5057378;28;20024;-48
2022/11/12 09:22:26;;;;;;;2.95;2.40;;;;;;;6.59;74.48;101773.63;5053230;28;20033;-49
2022/11/12 09:24:52;;;;;;;5.10;2.45;;;;;;;6.73;73.68;101773.03;5052483;28;20112;-51
2022/11/12 09:27:18;;;;;;;2.85;2.10;;;;;;;6.82;73.42;101779.22;5046305;28;20025;-50
2022/11/12 09:29:45;;;;;;;4.53;2.15;;;;;;;6.84;73.05;101777.25;5052629;28;20039;-47
2022/11/12 09:32:11;;;;;;;3.83;2.10;;;;;;;6.85;72.98;101781.59;5052747;28;20037;-48
2022/11/12 09:34:37;;;;;;;3.85;2.10;;;;;;;6.90;72.70;101779.28;5052936;28;20029;-48
2022/11/12 09:37:03;;;;;;;3.28;2.45;;;;;;;6.91;72.58;101775.63;5053781;28;20534;-47
2022/11/12 09:39:29;;;;;;;3.40;2.00;;;;;;;6.95;72.56;101769.00;5061950;28;20051;-48
2022/11/12 09:41:56;;;;;;;3.83;2.20;;;;;;;7.02;72.31;101766.53;5050671;28;20024;-49
2022/11/12 09:44:23;;;;;;;5.00;2.58;;;;;;;7.01;72.33;101773.69;5045904;28;20500;-47
2022/11/12 09:46:58;;;;;;;2.95;2.35;;;;;;;7.01;72.07;101767.53;5051729;28;20043;-50
2022/11/12 09:49:42;;;;;;;3.85;2.35;;;;;;;7.07;72.22;101775.69;5052376;28;20525;-50
2022/11/12 09:52:29;;;;;;;5.93;2.65;;;;;;;7.11;72.15;101779.72;5052537;28;20572;-50
2022/11/12 09:55:39;;;;;;;4.07;2.67;;;;;;;7.19;72.14;101772.75;5051025;28;20036;-48
2022/11/12 09:58:13;;;;;;;4.18;2.60;;;;;;;7.28;72.35;101775.28;5051870;28;20079;-48
2022/11/12 10:00:46;;;;;;;4.05;2.53;;;;;;;7.32;73.03;101778.44;5043396;28;20017;-46
2022/11/12 10:03:34;;;;;;;3.30;2.85;;;;;;;7.33;73.33;101774.81;5048588;28;20029;-47
2022/11/12 10:06:11;;;;;;;4.30;2.97;;;;;;;7.46;73.29;101775.16;5055840;28;20523;-47
2022/11/12 10:09:08;;;;;;;3.47;3.05;;;;;;;7.51;73.71;101788.84;5053030;28;20488;-47
2022/11/12 10:16:41;;;;;;;5.50;3.40;;;;;;;7.92;73.92;101786.22;5028209;28;20094;-51
2022/11/12 10:18:15;;;;;;;5.80;3.70;;;;;;;7.93;73.75;101796.72;5043706;28;20426;-51
2022/11/12 10:20:55;;;;;;;7.35;4.70;;;;;;;7.88;74.27;101800.88;5061488;28;20052;-51
2022/11/12 10:23:51;;;;;;;4.55;4.03;;;;;;;7.88;74.42;101806.22;5055123;28;20083;-49
2022/11/12 10:26:19;;;;;;;5.57;4.57;;;;;;;7.96;74.80;101813.41;5049790;28;20505;-52
2022/11/12 10:28:49;;;;;;;6.15;4.38;;;;;;;8.00;74.64;101812.09;5035923;28;20423;-48
2022/11/12 10:31:18;;;;;;;7.88;5.13;;;;;;;8.17;75.31;101811.09;5051541;28;20021;-49
2022/11/12 10:33:44;;;;;;;6.82;4.68;;;;;;;8.35;74.91;101817.06;5052325;28;20078;-47
2022/11/12 10:36:14;;;;;;;8.25;6.10;;;;;;;8.60;74.79;101817.91;5053204;28;20032;-51
2022/11/12 10:38:43;;;;;;;6.53;5.85;;;;;;;8.69;74.96;101826.75;5064918;28;20017;-50
2022/11/12 10:41:21;;;;;;;8.05;6.57;;;;;;;8.64;75.49;101829.09;5052062;28;20021;-46
2022/11/12 10:44:00;;;;;;;8.93;6.78;;;;;;;8.56;76.03;101839.78;5037886;28;20493;-49
2022/11/12 10:46:29;;;;;;;6.60;5.72;;;;;;;8.57;76.12;101836.94;5036603;28;20032;-47
2022/11/12 10:49:01;;;;;;;8.88;6.28;;;;;;;8.61;76.35;101824.94;5048141;28;20124;-49
2022/11/12 10:51:35;;;;;;;10.05;7.65;;;;;;;8.90;76.21;101835.03;5056675;28;20029;-47
2022/11/12 10:54:26;;;;;;;12.43;6.30;;;;;;;8.93;75.71;101844.53;5050608;28;20025;-47
2022/11/12 10:56:53;;;;;;;7.88;5.63;;;;;;;8.83;76.55;101844.75;5051339;28;20119;-50
2022/11/12 10:59:20;;;;;;;7.20;6.10;;;;;;;8.85;76.50;101845.41;5050992;28;20024;-48
2022/11/12 11:01:58;;;;;;;7.68;5.82;;;;;;;8.88;76.92;101839.75;5035169;28;20025;-48
2022/11/12 11:04:35;;;;;;;8.88;6.68;;;;;;;8.99;76.93;101825.16;5050875;28;20037;-46
2022/11/12 11:07:25;;;;;;;8.82;6.63;;;;;;;9.00;77.42;101829.53;5051365;28;20033;-47
2022/11/12 11:09:57;;;;;;;14.55;6.95;;;;;;;8.98;77.82;101834.19;5050357;28;20099;-50
2022/11/12 11:12:28;;;;;;;8.40;7.05;;;;;;;9.16;77.86;101826.81;5051765;28;20033;-46
2022/11/12 11:15:07;;;;;;;8.75;7.20;;;;;;;9.13;78.41;101831.66;5050041;28;20032;-48
2022/11/12 11:17:34;;;;;;;9.85;7.43;;;;;;;9.12;79.12;101833.50;5041352;28;20029;-47
2022/11/12 11:20:01;;;;;;;9.27;8.00;;;;;;;9.11;80.31;101831.81;5050709;28;20037;-47
2022/11/12 11:22:46;;;;;;;8.88;6.88;;;;;;;9.17;80.05;101819.63;5050021;28;20080;-47
2022/11/12 11:25:41;;;;;;;9.40;7.97;;;;;;;9.08;81.01;101818.81;5049568;28;20037;-47
2022/11/12 11:28:22;;;;;;;9.90;7.30;;;;;;;8.97;82.07;101832.53;5030529;28;20043;-48
2022/11/12 11:31:05;;;;;;;7.88;6.35;;;;;;;9.16;81.29;101828.63;5050456;28;20531;-46
2022/11/12 11:33:59;;;;;;;9.02;6.88;;;;;;;9.28;80.83;101813.06;5049462;28;20060;-47
2022/11/12 11:36:38;;;;;;;8.52;7.32;;;;;;;9.41;80.67;101830.19;5046412;28;20412;-46
2022/11/12 11:39:33;;;;;;;12.20;8.13;;;;;;;9.52;80.73;101824.47;5045193;28;20029;-45
2022/11/12 11:42:17;;;;;;;8.50;7.60;;;;;;;9.61;80.88;101817.25;5032081;28;20388;-46
2022/11/12 11:45:01;;;;;;;10.38;8.32;;;;;;;9.69;81.21;101805.66;5037124;28;20029;-47
2022/11/12 11:47:39;;;;;;;11.02;8.32;;;;;;;9.52;81.64;101804.91;5044820;28;20025;-46
2022/11/12 11:50:18;;;;;;;11.43;8.63;;;;;;;9.47;82.21;101801.94;5025532;28;20036;-46
2022/11/12 11:53:01;;;;;;;10.93;8.80;;;;;;;9.33;83.64;101792.84;5031235;28;20481;-46
2022/11/12 11:55:50;;;;;;;10.13;8.35;;;;;;;9.29;83.93;101788.84;5049987;28;20033;-49
2022/11/12 11:58:31;;;;;;;13.50;9.85;;;;;;;9.04;85.96;101789.94;5019231;28;20040;-47
2022/11/12 12:01:06;;;;;;;10.65;9.57;;;;;;;8.88;87.55;101781.00;5049568;28;20048;-48
2022/11/12 12:03:59;;;;;;;14.45;9.98;;;;;;;9.00;87.57;101778.78;5049958;28;20108;-48
2022/11/12 12:06:45;;;;;;;13.65;9.05;;;;;;;9.28;85.55;101773.81;5059956;28;20033;-50
2022/11/12 12:09:57;;;;;;;10.88;9.00;;;;;;;9.28;85.20;101770.31;5054322;28;20029;-47
2022/11/12 12:12:26;;;;;;;10.73;9.00;;;;;;;9.36;84.99;101773.78;4980822;28;20046;-46
2022/11/12 12:15:01;;;;;;;9.43;8.52;;;;;;;9.46;84.35;101781.56;5034892;28;20052;-47
2022/11/12 12:17:40;;;;;;;11.70;9.80;;;;;;;9.57;84.20;101777.66;5050656;28;20457;-47